Time;durP1;ratioP1;P1;durP2;ratioP2;P2;SDS_P1;SDS_P2;PMS_P1;PMS_P2;Temp;Humidity;BMP_temperature;BMP_pressure;BME280_temperature;BME280_humidity;BME280_pressure;Samples;Min_cycle;Max_cycle;Signal;HPM_P1;HPM_P2
2024/01/29 00:00:24;;;;;;;8.02;4.15;;;;;;;;;;4979290;28;20050;-65
2024/01/29 00:02:50;;;;;;;7.60;4.20;;;;;;;;;;4985748;28;20367;-65
2024/01/29 00:05:16;;;;;;;12.50;4.45;;;;;;;;;;4978726;28;20042;-65
2024/01/29 00:07:43;;;;;;;8.07;4.65;;;;;;;;;;4980137;28;20510;-65
2024/01/29 00:10:09;;;;;;;10.13;4.22;;;;;;;;;;4990374;28;20042;-65
2024/01/29 00:12:35;;;;;;;8.57;3.85;;;;;;;;;;4972392;28;21657;-65
2024/01/29 00:15:02;;;;;;;8.30;3.72;;;;;;;;;;4989754;28;20053;-65
2024/01/29 00:17:28;;;;;;;7.03;4.10;;;;;;;;;;4986060;28;20038;-65
2024/01/29 00:19:55;;;;;;;11.43;4.50;;;;;;;;;;4996384;28;20546;-65
2024/01/29 00:22:21;;;;;;;9.32;3.85;;;;;;;;;;4991405;28;20122;-65
2024/01/29 00:24:47;;;;;;;8.63;3.67;;;;;;;;;;4987925;28;20042;-65
2024/01/29 00:27:13;;;;;;;8.02;4.13;;;;;;;;;;4982613;28;20180;-66
2024/01/29 00:29:39;;;;;;;8.82;4.30;;;;;;;;;;4979949;28;20069;-65
2024/01/29 00:32:07;;;;;;;9.73;4.88;;;;;;;;;;4985050;28;20064;-65
2024/01/29 00:34:33;;;;;;;9.50;4.15;;;;;;;;;;4990891;28;20120;-65
2024/01/29 00:36:59;;;;;;;9.57;4.30;;;;;;;;;;4993014;28;20054;-65
2024/01/29 00:39:26;;;;;;;8.98;3.90;;;;;;;;;;4981444;28;20503;-65
2024/01/29 00:41:52;;;;;;;7.80;3.75;;;;;;;;;;4985024;28;20172;-65
2024/01/29 00:44:19;;;;;;;7.75;4.32;;;;;;;;;;4984822;28;20045;-65
2024/01/29 00:46:46;;;;;;;7.97;4.22;;;;;;;;;;4976747;28;20058;-65
2024/01/29 00:49:12;;;;;;;13.60;4.70;;;;;;;;;;4993107;28;20042;-65
2024/01/29 00:51:38;;;;;;;9.45;5.05;;;;;;;;;;4986197;28;20082;-65
2024/01/29 00:54:05;;;;;;;8.98;4.18;;;;;;;;;;4993912;28;20120;-65
2024/01/29 00:56:32;;;;;;;9.23;4.22;;;;;;;;;;4993787;28;20054;-65
2024/01/29 00:58:58;;;;;;;8.85;4.28;;;;;;;;;;4994986;28;20359;-65
2024/01/29 01:01:24;;;;;;;8.13;4.22;;;;;;;;;;4984698;28;20111;-65
2024/01/29 01:03:50;;;;;;;11.13;4.30;;;;;;;;;;4986368;28;20379;-65
2024/01/29 01:06:16;;;;;;;6.72;4.10;;;;;;;;;;4992111;28;20038;-66
2024/01/29 01:08:42;;;;;;;9.18;5.20;;;;;;;;;;4996250;28;20141;-65
2024/01/29 01:11:09;;;;;;;9.65;4.82;;;;;;;;;;4985652;28;20571;-65
2024/01/29 01:13:35;;;;;;;8.25;4.03;;;;;;;;;;4987960;28;20101;-65
2024/01/29 01:16:01;;;;;;;7.50;3.95;;;;;;;;;;4985551;28;20100;-65
2024/01/29 01:18:27;;;;;;;11.02;5.10;;;;;;;;;;4987256;28;20074;-65
2024/01/29 01:20:53;;;;;;;8.57;4.93;;;;;;;;;;4984416;28;20042;-65
2024/01/29 01:23:19;;;;;;;9.60;4.25;;;;;;;;;;4979870;28;20049;-65
2024/01/29 01:25:46;;;;;;;9.48;4.65;;;;;;;;;;4980369;28;20502;-65
2024/01/29 01:28:12;;;;;;;10.65;5.20;;;;;;;;;;4989886;28;20049;-65
2024/01/29 01:30:38;;;;;;;8.82;4.93;;;;;;;;;;4994866;28;20039;-66
2024/01/29 01:33:04;;;;;;;8.23;4.45;;;;;;;;;;4985724;28;20050;-65
2024/01/29 01:35:31;;;;;;;10.55;4.60;;;;;;;;;;4991971;28;20658;-65
2024/01/29 01:37:57;;;;;;;8.63;4.28;;;;;;;;;;4993253;28;20742;-65
2024/01/29 01:40:23;;;;;;;10.25;5.18;;;;;;;;;;4982740;28;20099;-65
2024/01/29 01:42:49;;;;;;;8.63;5.32;;;;;;;;;;4990939;28;20038;-65
2024/01/29 01:45:15;;;;;;;12.10;5.65;;;;;;;;;;4985453;28;20042;-65
2024/01/29 01:47:42;;;;;;;9.15;4.80;;;;;;;;;;4984603;28;20136;-65
2024/01/29 01:50:09;;;;;;;11.25;4.93;;;;;;;;;;4991521;28;20049;-65
2024/01/29 01:52:36;;;;;;;12.05;4.80;;;;;;;;;;4976020;28;20427;-65
2024/01/29 01:55:02;;;;;;;9.00;5.32;;;;;;;;;;4983649;28;20050;-65
2024/01/29 01:57:29;;;;;;;9.10;4.85;;;;;;;;;;4985309;28;20038;-65
2024/01/29 01:59:56;;;;;;;8.63;4.95;;;;;;;;;;4984101;28;20506;-65
2024/01/29 02:02:22;;;;;;;12.80;5.03;;;;;;;;;;4989903;28;20132;-65
2024/01/29 02:04:48;;;;;;;9.32;5.20;;;;;;;;;;4982569;28;20042;-65
2024/01/29 02:07:15;;;;;;;8.80;4.63;;;;;;;;;;4997845;28;20113;-65
2024/01/29 02:09:42;;;;;;;12.77;5.63;;;;;;;;;;4983925;28;20045;-65
2024/01/29 02:12:10;;;;;;;10.43;5.13;;;;;;;;;;4991530;28;20035;-65
2024/01/29 02:14:36;;;;;;;9.07;5.00;;;;;;;;;;4986802;28;20113;-65
2024/01/29 02:17:03;;;;;;;8.27;4.97;;;;;;;;;;4990637;28;20034;-65
2024/01/29 02:19:30;;;;;;;7.45;4.53;;;;;;;;;;4994693;28;20057;-65
2024/01/29 02:21:56;;;;;;;9.27;5.20;;;;;;;;;;4980970;28;20481;-65
2024/01/29 02:24:22;;;;;;;8.18;4.88;;;;;;;;;;4995651;28;20046;-65
2024/01/29 02:26:48;;;;;;;9.45;5.15;;;;;;;;;;4989375;28;20046;-65
2024/01/29 02:29:15;;;;;;;11.52;6.20;;;;;;;;;;4982930;28;20046;-65
2024/01/29 02:31:41;;;;;;;11.43;5.90;;;;;;;;;;4979127;28;20069;-65
2024/01/29 02:34:07;;;;;;;9.25;5.10;;;;;;;;;;4982901;28;20058;-65
2024/01/29 02:36:33;;;;;;;9.57;5.20;;;;;;;;;;4965454;28;20181;-65
2024/01/29 02:38:59;;;;;;;10.63;5.45;;;;;;;;;;4983115;28;20045;-65
2024/01/29 02:41:26;;;;;;;8.68;5.63;;;;;;;;;;4981160;28;20157;-65
2024/01/29 02:43:52;;;;;;;12.02;6.03;;;;;;;;;;4979676;28;20038;-65
2024/01/29 02:46:18;;;;;;;10.38;5.88;;;;;;;;;;4981183;28;20097;-65
2024/01/29 02:48:44;;;;;;;13.43;6.18;;;;;;;;;;4983121;28;20101;-65
2024/01/29 02:51:11;;;;;;;12.45;5.28;;;;;;;;;;4991159;28;20038;-65
2024/01/29 02:53:37;;;;;;;8.30;5.00;;;;;;;;;;4990815;28;20121;-65
2024/01/29 02:56:03;;;;;;;10.10;5.10;;;;;;;;;;4984049;28;20046;-65
2024/01/29 02:58:29;;;;;;;8.63;5.05;;;;;;;;;;4989389;28;20046;-65
2024/01/29 03:00:55;;;;;;;10.77;5.03;;;;;;;;;;4989053;28;20042;-65
2024/01/29 03:03:22;;;;;;;14.30;5.60;;;;;;;;;;4987989;28;20573;-65
2024/01/29 03:05:48;;;;;;;9.50;5.65;;;;;;;;;;4969533;28;20046;-65
2024/01/29 03:08:14;;;;;;;11.60;5.22;;;;;;;;;;4991452;28;20057;-65
2024/01/29 03:10:40;;;;;;;9.55;5.15;;;;;;;;;;4992502;28;20698;-65
2024/01/29 03:13:06;;;;;;;12.55;5.47;;;;;;;;;;4987188;28;20038;-65
2024/01/29 03:15:32;;;;;;;9.68;5.57;;;;;;;;;;4980217;28;20120;-65
2024/01/29 03:17:59;;;;;;;10.10;5.38;;;;;;;;;;4990352;28;20135;-65
2024/01/29 03:20:25;;;;;;;13.52;5.95;;;;;;;;;;4979016;28;20057;-65
2024/01/29 03:22:51;;;;;;;13.07;5.45;;;;;;;;;;4979928;28;20050;-66
2024/01/29 03:25:17;;;;;;;13.73;6.00;;;;;;;;;;4987876;28;20104;-65
2024/01/29 03:27:43;;;;;;;10.82;6.03;;;;;;;;;;4990097;28;20054;-65
2024/01/29 03:30:10;;;;;;;11.32;6.40;;;;;;;;;;4989575;28;20054;-65
2024/01/29 03:32:36;;;;;;;10.55;6.03;;;;;;;;;;4988613;28;20582;-65
2024/01/29 03:35:03;;;;;;;9.70;5.70;;;;;;;;;;4969493;28;20097;-65
2024/01/29 03:37:29;;;;;;;10.10;5.95;;;;;;;;;;4979218;28;20111;-65
2024/01/29 03:39:55;;;;;;;7.88;4.95;;;;;;;;;;4982393;28;20049;-65
2024/01/29 03:42:21;;;;;;;11.77;6.03;;;;;;;;;;4979676;28;20113;-66
2024/01/29 03:44:47;;;;;;;11.98;5.72;;;;;;;;;;4975109;28;20056;-65
2024/01/29 03:47:13;;;;;;;11.75;6.28;;;;;;;;;;4979781;28;20034;-65
2024/01/29 03:49:40;;;;;;;11.18;5.63;;;;;;;;;;4974293;28;20052;-65
2024/01/29 03:52:06;;;;;;;10.15;5.68;;;;;;;;;;4979151;28;20049;-65
2024/01/29 03:54:32;;;;;;;11.02;5.63;;;;;;;;;;4979044;28;20732;-65
2024/01/29 03:56:58;;;;;;;12.50;6.15;;;;;;;;;;4988722;28;20049;-66
2024/01/29 03:59:24;;;;;;;11.75;5.82;;;;;;;;;;4985739;28;20046;-65
2024/01/29 04:01:51;;;;;;;9.38;5.78;;;;;;;;;;4973136;28;20049;-65
2024/01/29 04:04:17;;;;;;;10.30;5.35;;;;;;;;;;4987450;28;20132;-65
2024/01/29 04:06:46;;;;;;;12.93;6.63;;;;;;;;;;4989085;28;20037;-65
2024/01/29 04:09:12;;;;;;;11.48;5.90;;;;;;;;;;4983399;28;20107;-65
2024/01/29 04:11:39;;;;;;;14.55;6.35;;;;;;;;;;4991243;28;22069;-65
2024/01/29 04:14:05;;;;;;;11.18;6.32;;;;;;;;;;4987877;28;20128;-65
2024/01/29 04:16:31;;;;;;;11.30;6.45;;;;;;;;;;4985408;28;20145;-65
2024/01/29 04:18:57;;;;;;;9.82;5.43;;;;;;;;;;4976978;28;20124;-65
2024/01/29 04:21:24;;;;;;;11.52;6.60;;;;;;;;;;4972932;28;20042;-65
2024/01/29 04:23:50;;;;;;;15.20;6.78;;;;;;;;;;4976489;28;20056;-65
2024/01/29 04:26:16;;;;;;;13.95;6.40;;;;;;;;;;4977659;28;20046;-65
2024/01/29 04:28:42;;;;;;;12.65;6.55;;;;;;;;;;4989418;28;20053;-65
2024/01/29 04:31:08;;;;;;;11.93;6.80;;;;;;;;;;4973248;28;20077;-65
2024/01/29 04:33:35;;;;;;;16.98;7.00;;;;;;;;;;4980539;28;20198;-65
2024/01/29 04:36:01;;;;;;;13.13;6.95;;;;;;;;;;4979112;28;20137;-65
2024/01/29 04:38:27;;;;;;;10.95;7.00;;;;;;;;;;4971215;28;20045;-65
2024/01/29 04:40:53;;;;;;;14.95;6.75;;;;;;;;;;4981703;28;20042;-65
2024/01/29 04:43:19;;;;;;;13.80;6.43;;;;;;;;;;4981112;28;20049;-65
2024/01/29 04:45:46;;;;;;;14.60;6.95;;;;;;;;;;4980192;28;20050;-66
2024/01/29 04:48:12;;;;;;;13.20;6.47;;;;;;;;;;4980083;28;20200;-65
2024/01/29 04:50:39;;;;;;;13.70;6.40;;;;;;;;;;4973645;28;20039;-65
2024/01/29 04:53:05;;;;;;;14.13;6.47;;;;;;;;;;4979328;28;20081;-65
2024/01/29 04:55:31;;;;;;;11.02;6.82;;;;;;;;;;4987535;28;20050;-65
2024/01/29 04:57:57;;;;;;;13.93;6.72;;;;;;;;;;4978598;28;20077;-65
2024/01/29 05:00:23;;;;;;;11.48;6.25;;;;;;;;;;4952661;28;20532;-65
2024/01/29 05:02:49;;;;;;;11.15;6.50;;;;;;;;;;4985940;28;20054;-65
2024/01/29 05:05:16;;;;;;;11.07;6.18;;;;;;;;;;4978059;28;20054;-65
2024/01/29 05:07:42;;;;;;;13.38;6.72;;;;;;;;;;4986234;28;20105;-65
2024/01/29 05:10:09;;;;;;;10.95;5.78;;;;;;;;;;4993428;28;20042;-65
2024/01/29 05:12:35;;;;;;;10.48;6.05;;;;;;;;;;4989421;28;20497;-65
2024/01/29 05:15:01;;;;;;;11.63;6.72;;;;;;;;;;4986530;28;20049;-65
2024/01/29 05:17:28;;;;;;;11.32;6.97;;;;;;;;;;4971773;28;20056;-65
2024/01/29 05:19:54;;;;;;;12.02;7.13;;;;;;;;;;4986849;28;20038;-65
2024/01/29 05:22:21;;;;;;;11.57;6.22;;;;;;;;;;4978931;28;20060;-65
2024/01/29 05:24:48;;;;;;;12.77;6.95;;;;;;;;;;4980845;28;20526;-65
2024/01/29 05:27:14;;;;;;;12.70;7.03;;;;;;;;;;4985652;28;20111;-65
2024/01/29 05:29:40;;;;;;;16.52;6.72;;;;;;;;;;4991379;28;20132;-66
2024/01/29 05:32:06;;;;;;;13.38;7.22;;;;;;;;;;4991587;28;20050;-65
2024/01/29 05:34:32;;;;;;;16.13;7.40;;;;;;;;;;4987786;28;20131;-65
2024/01/29 05:36:59;;;;;;;12.60;7.38;;;;;;;;;;4977462;28;20057;-65
2024/01/29 05:39:25;;;;;;;11.63;7.60;;;;;;;;;;4983667;28;20065;-65
2024/01/29 05:41:51;;;;;;;12.65;7.68;;;;;;;;;;5004835;28;20129;-65
2024/01/29 05:44:18;;;;;;;14.05;7.82;;;;;;;;;;4986130;28;20062;-65
2024/01/29 05:46:44;;;;;;;14.25;7.93;;;;;;;;;;4990521;28;20050;-65
2024/01/29 05:49:10;;;;;;;15.32;8.20;;;;;;;;;;4989480;28;20082;-65
2024/01/29 05:51:36;;;;;;;14.55;7.88;;;;;;;;;;5001901;28;20401;-65
2024/01/29 05:54:02;;;;;;;13.00;7.40;;;;;;;;;;5001396;28;20031;-65
2024/01/29 05:56:28;;;;;;;15.35;7.95;;;;;;;;;;4990731;28;20053;-66
2024/01/29 05:58:54;;;;;;;14.27;8.55;;;;;;;;;;4989760;28;20196;-65
2024/01/29 06:01:21;;;;;;;13.43;7.85;;;;;;;;;;4985367;28;20121;-65
2024/01/29 06:03:47;;;;;;;15.85;8.38;;;;;;;;;;4991083;28;20144;-65
2024/01/29 06:06:13;;;;;;;12.70;8.40;;;;;;;;;;4988878;28;20116;-65
2024/01/29 06:08:39;;;;;;;13.38;7.95;;;;;;;;;;4999168;28;20041;-65
2024/01/29 06:11:05;;;;;;;14.48;8.38;;;;;;;;;;4990139;28;20100;-65
2024/01/29 06:13:32;;;;;;;17.48;9.23;;;;;;;;;;4985033;28;20132;-65
2024/01/29 06:15:58;;;;;;;15.07;8.13;;;;;;;;;;4985114;28;20089;-65
2024/01/29 06:18:24;;;;;;;16.92;8.98;;;;;;;;;;4987781;28;20056;-65
2024/01/29 06:20:50;;;;;;;13.25;8.90;;;;;;;;;;4985273;28;20482;-65
2024/01/29 06:23:17;;;;;;;16.95;8.68;;;;;;;;;;5002495;28;20141;-65
2024/01/29 06:25:43;;;;;;;18.75;9.80;;;;;;;;;;4987270;28;20498;-65
2024/01/29 06:28:09;;;;;;;14.55;9.00;;;;;;;;;;4987628;28;20145;-65
2024/01/29 06:30:36;;;;;;;15.60;9.80;;;;;;;;;;4986501;28;20483;-66
2024/01/29 06:33:02;;;;;;;14.30;8.70;;;;;;;;;;4982028;28;20600;-65
2024/01/29 06:35:30;;;;;;;16.08;9.82;;;;;;;;;;4987137;28;20152;-66
2024/01/29 06:37:56;;;;;;;14.80;9.13;;;;;;;;;;4978322;28;20071;-65
2024/01/29 06:40:27;;;;;;;13.32;9.07;;;;;;;;;;4975825;28;20478;-65
2024/01/29 06:42:54;;;;;;;14.63;8.70;;;;;;;;;;5009127;28;20485;-65
2024/01/29 06:45:20;;;;;;;15.05;8.38;;;;;;;;;;4987028;28;20050;-66
2024/01/29 06:47:46;;;;;;;16.25;9.07;;;;;;;;;;4987716;28;20073;-65
2024/01/29 06:50:12;;;;;;;16.45;9.80;;;;;;;;;;4987201;28;20053;-65
2024/01/29 06:52:38;;;;;;;15.05;8.32;;;;;;;;;;4992729;28;20552;-65
2024/01/29 06:55:05;;;;;;;15.38;9.15;;;;;;;;;;4990154;28;20639;-66
2024/01/29 06:57:31;;;;;;;16.33;10.68;;;;;;;;;;4997260;28;20088;-66
2024/01/29 06:59:58;;;;;;;14.40;9.02;;;;;;;;;;4984264;28;20084;-65
2024/01/29 07:02:24;;;;;;;16.50;9.65;;;;;;;;;;4997212;28;20038;-66
2024/01/29 07:04:50;;;;;;;17.05;8.40;;;;;;;;;;5000033;28;20052;-65
2024/01/29 07:07:16;;;;;;;17.15;9.10;;;;;;;;;;4998921;28;20077;-65
2024/01/29 07:09:42;;;;;;;15.50;10.13;;;;;;;;;;5000442;28;20034;-65
2024/01/29 07:12:09;;;;;;;18.00;8.85;;;;;;;;;;4999185;28;20050;-66
2024/01/29 07:14:38;;;;;;;18.27;10.20;;;;;;;;;;4986706;28;20041;-65
2024/01/29 07:17:04;;;;;;;15.68;9.88;;;;;;;;;;4984565;28;20050;-65
2024/01/29 07:19:33;;;;;;;17.80;9.20;;;;;;;;;;4986640;28;20103;-65
2024/01/29 07:22:04;;;;;;;16.35;8.85;;;;;;;;;;4997880;28;20099;-66
2024/01/29 07:24:31;;;;;;;17.63;9.77;;;;;;;;;;4987032;28;20042;-66
2024/01/29 07:26:59;;;;;;;17.05;9.20;;;;;;;;;;5001467;28;20049;-66
2024/01/29 07:29:26;;;;;;;14.20;8.82;;;;;;;;;;5004368;28;20045;-66
2024/01/29 07:31:54;;;;;;;15.13;10.23;;;;;;;;;;4987634;28;20066;-66
2024/01/29 07:34:20;;;;;;;17.95;9.95;;;;;;;;;;4980885;28;20045;-66
2024/01/29 07:36:47;;;;;;;17.00;9.70;;;;;;;;;;5005496;28;20045;-66
2024/01/29 07:39:13;;;;;;;17.48;9.88;;;;;;;;;;5000843;28;20409;-66
2024/01/29 07:41:40;;;;;;;16.63;10.27;;;;;;;;;;4996036;28;20117;-66
2024/01/29 07:44:06;;;;;;;15.77;9.85;;;;;;;;;;4992498;28;20060;-66
2024/01/29 07:46:33;;;;;;;15.23;8.98;;;;;;;;;;4996815;28;20038;-66
2024/01/29 07:49:02;;;;;;;15.20;9.68;;;;;;;;;;4994235;28;20058;-65
2024/01/29 07:51:28;;;;;;;21.02;10.57;;;;;;;;;;4995297;28;20084;-65
2024/01/29 07:53:54;;;;;;;17.35;11.55;;;;;;;;;;4991200;28;20092;-65
2024/01/29 07:56:20;;;;;;;22.08;9.80;;;;;;;;;;4982452;28;20042;-66
2024/01/29 07:58:46;;;;;;;17.15;9.80;;;;;;;;;;4991862;28;20492;-66
2024/01/29 08:01:13;;;;;;;15.45;9.35;;;;;;;;;;4999772;28;20038;-66
2024/01/29 08:03:39;;;;;;;14.90;10.00;;;;;;;;;;4982460;28;20049;-66
2024/01/29 08:06:05;;;;;;;17.05;10.32;;;;;;;;;;4994652;28;20046;-66
2024/01/29 08:08:31;;;;;;;14.13;9.98;;;;;;;;;;4982213;28;20042;-66
2024/01/29 08:10:59;;;;;;;18.65;10.93;;;;;;;;;;4980574;28;20498;-67
2024/01/29 08:13:25;;;;;;;16.23;10.23;;;;;;;;;;4960289;28;20052;-66
2024/01/29 08:15:52;;;;;;;19.38;10.45;;;;;;;;;;5001613;28;20470;-66
2024/01/29 08:18:18;;;;;;;19.10;10.27;;;;;;;;;;5001551;28;20077;-66
2024/01/29 08:20:44;;;;;;;18.83;10.40;;;;;;;;;;4984911;28;20092;-66
2024/01/29 08:23:11;;;;;;;16.10;10.27;;;;;;;;;;5000458;28;20426;-66
2024/01/29 08:25:38;;;;;;;14.98;9.93;;;;;;;;;;4977919;28;20054;-65
2024/01/29 08:28:04;;;;;;;18.17;10.90;;;;;;;;;;4985686;28;20129;-66
2024/01/29 08:30:30;;;;;;;14.82;10.63;;;;;;;;;;4996118;28;20445;-65
2024/01/29 08:32:57;;;;;;;22.65;11.35;;;;;;;;;;4984866;28;20486;-65
2024/01/29 08:35:23;;;;;;;15.85;11.10;;;;;;;;;;4996461;28;20050;-67
2024/01/29 08:37:49;;;;;;;19.10;10.52;;;;;;;;;;4980850;28;20041;-66
2024/01/29 08:40:16;;;;;;;17.85;11.18;;;;;;;;;;4993571;28;20455;-66
2024/01/29 08:42:42;;;;;;;19.58;12.07;;;;;;;;;;4993044;28;20058;-66
2024/01/29 08:45:08;;;;;;;19.15;12.13;;;;;;;;;;4994355;28;20063;-66
2024/01/29 08:47:34;;;;;;;16.70;10.40;;;;;;;;;;4986681;28;20072;-69
2024/01/29 08:50:01;;;;;;;20.20;11.55;;;;;;;;;;4985163;28;20054;-80
2024/01/29 08:52:27;;;;;;;19.30;10.35;;;;;;;;;;4995003;28;20490;-67
2024/01/29 08:54:53;;;;;;;20.50;11.13;;;;;;;;;;4991635;28;20035;-66
2024/01/29 08:57:19;;;;;;;19.35;11.60;;;;;;;;;;4973643;28;20051;-66
2024/01/29 08:59:45;;;;;;;18.13;12.50;;;;;;;;;;4994809;28;20657;-65
2024/01/29 09:02:11;;;;;;;18.67;12.45;;;;;;;;;;4977508;28;20459;-65
2024/01/29 09:04:38;;;;;;;17.30;11.25;;;;;;;;;;4984704;28;20046;-67
2024/01/29 09:07:04;;;;;;;19.67;12.90;;;;;;;;;;4967795;28;20488;-66
2024/01/29 09:09:30;;;;;;;18.00;11.98;;;;;;;;;;4984816;28;20092;-66
2024/01/29 09:11:56;;;;;;;20.80;12.95;;;;;;;;;;4988573;28;20042;-66
2024/01/29 09:14:24;;;;;;;21.55;12.38;;;;;;;;;;4986368;28;20361;-66
2024/01/29 09:16:50;;;;;;;25.25;14.65;;;;;;;;;;4987005;28;20159;-66
2024/01/29 09:19:19;;;;;;;19.40;12.68;;;;;;;;;;4983257;28;20049;-65
2024/01/29 09:21:49;;;;;;;21.27;12.05;;;;;;;;;;4982735;28;20049;-65
2024/01/29 09:24:16;;;;;;;19.35;12.15;;;;;;;;;;4989110;28;20133;-66
2024/01/29 09:26:43;;;;;;;17.77;12.10;;;;;;;;;;4998635;28;20104;-66
2024/01/29 09:29:09;;;;;;;17.95;12.23;;;;;;;;;;4991470;28;20052;-66
2024/01/29 09:31:35;;;;;;;19.10;12.90;;;;;;;;;;4972511;28;20154;-65
2024/01/29 09:34:03;;;;;;;17.70;11.52;;;;;;;;;;4988152;28;20133;-66
2024/01/29 09:36:29;;;;;;;19.20;11.88;;;;;;;;;;5003416;28;20051;-66
2024/01/29 09:38:55;;;;;;;18.02;12.05;;;;;;;;;;4987328;28;20054;-66
2024/01/29 09:41:21;;;;;;;16.33;12.27;;;;;;;;;;4986234;28;20375;-66
2024/01/29 09:43:47;;;;;;;19.20;12.13;;;;;;;;;;5003543;28;20057;-66
2024/01/29 09:46:16;;;;;;;18.95;11.93;;;;;;;;;;4999324;28;20057;-66
2024/01/29 09:48:43;;;;;;;19.48;12.35;;;;;;;;;;4985420;28;20053;-66
2024/01/29 09:51:14;;;;;;;18.13;11.77;;;;;;;;;;5000466;28;20103;-66
2024/01/29 09:53:40;;;;;;;17.60;11.52;;;;;;;;;;4984069;28;20073;-72
2024/01/29 09:56:06;;;;;;;17.10;11.38;;;;;;;;;;4987111;28;20042;-66
2024/01/29 09:58:33;;;;;;;16.52;10.90;;;;;;;;;;4998217;28;20116;-67
2024/01/29 10:00:59;;;;;;;19.77;11.85;;;;;;;;;;4998841;28;20142;-67
2024/01/29 10:03:27;;;;;;;19.13;11.80;;;;;;;;;;5000367;28;20049;-67
2024/01/29 10:05:54;;;;;;;20.23;11.88;;;;;;;;;;4998695;28;20501;-67
2024/01/29 10:08:24;;;;;;;19.75;12.57;;;;;;;;;;4987592;28;20076;-67
2024/01/29 10:10:51;;;;;;;22.88;11.65;;;;;;;;;;4991581;28;20096;-67
2024/01/29 10:13:17;;;;;;;21.08;11.82;;;;;;;;;;5000267;28;20466;-67
2024/01/29 10:15:43;;;;;;;18.10;11.73;;;;;;;;;;4995331;28;20038;-67
2024/01/29 10:18:11;;;;;;;23.40;12.77;;;;;;;;;;4991339;28;20046;-67
2024/01/29 10:20:37;;;;;;;20.75;11.00;;;;;;;;;;4970657;28;20100;-67
2024/01/29 10:23:04;;;;;;;18.88;11.75;;;;;;;;;;4986389;28;20054;-67
2024/01/29 10:25:32;;;;;;;18.45;12.35;;;;;;;;;;4988059;28;20041;-67
2024/01/29 10:28:05;;;;;;;20.30;12.15;;;;;;;;;;5003509;28;20459;-67
2024/01/29 10:30:32;;;;;;;21.10;13.63;;;;;;;;;;4991806;28;20114;-67
2024/01/29 10:32:59;;;;;;;23.58;14.07;;;;;;;;;;4985194;28;20689;-67
2024/01/29 10:35:25;;;;;;;20.63;12.30;;;;;;;;;;4989733;28;20053;-67
2024/01/29 10:37:51;;;;;;;20.95;13.35;;;;;;;;;;4992070;28;20046;-67
2024/01/29 10:40:22;;;;;;;23.05;13.90;;;;;;;;;;4969846;28;20038;-67
2024/01/29 10:42:49;;;;;;;21.20;13.60;;;;;;;;;;4988846;28;20191;-67
2024/01/29 10:45:19;;;;;;;19.95;13.65;;;;;;;;;;4990049;28;20050;-67
2024/01/29 10:47:48;;;;;;;21.13;13.02;;;;;;;;;;5000640;28;20493;-67
2024/01/29 10:50:18;;;;;;;20.35;13.57;;;;;;;;;;4988227;28;20089;-67
2024/01/29 10:52:47;;;;;;;19.05;12.65;;;;;;;;;;4988953;28;20140;-67
2024/01/29 10:55:15;;;;;;;20.42;13.35;;;;;;;;;;4987954;28;20136;-67
2024/01/29 10:57:45;;;;;;;18.80;12.45;;;;;;;;;;4986202;28;20122;-67
2024/01/29 11:00:12;;;;;;;21.33;13.13;;;;;;;;;;4996256;28;20136;-67
2024/01/29 11:02:38;;;;;;;23.25;13.27;;;;;;;;;;5000571;28;20487;-67
2024/01/29 11:05:05;;;;;;;23.80;14.02;;;;;;;;;;5001575;28;20041;-67
2024/01/29 11:07:32;;;;;;;28.75;14.38;;;;;;;;;;5000711;28;20038;-67
2024/01/29 11:10:03;;;;;;;25.83;15.00;;;;;;;;;;4987947;28;20086;-67
2024/01/29 11:12:30;;;;;;;29.73;15.05;;;;;;;;;;4987510;28;20058;-67
2024/01/29 11:14:59;;;;;;;32.28;15.45;;;;;;;;;;4999235;28;20578;-67
2024/01/29 11:17:26;;;;;;;29.75;15.80;;;;;;;;;;4996517;28;20034;-68
2024/01/29 11:19:52;;;;;;;29.83;16.00;;;;;;;;;;4983998;28;20065;-69
2024/01/29 11:22:18;;;;;;;35.72;16.83;;;;;;;;;;4986793;28;20167;-67
2024/01/29 11:24:44;;;;;;;34.80;17.17;;;;;;;;;;4986489;28;20049;-67
2024/01/29 11:27:11;;;;;;;33.13;15.82;;;;;;;;;;5006478;28;20382;-67
2024/01/29 11:29:38;;;;;;;32.10;17.08;;;;;;;;;;4997741;28;20233;-67
2024/01/29 11:32:05;;;;;;;34.05;17.05;;;;;;;;;;4986620;28;20081;-67
2024/01/29 11:34:31;;;;;;;37.80;17.73;;;;;;;;;;4990775;28;20050;-67
2024/01/29 11:36:58;;;;;;;31.33;17.52;;;;;;;;;;4994928;28;20041;-67
2024/01/29 11:39:24;;;;;;;38.70;18.08;;;;;;;;;;5000403;28;20070;-66
2024/01/29 11:41:51;;;;;;;33.08;16.40;;;;;;;;;;4983134;28;20079;-67
2024/01/29 11:44:18;;;;;;;36.78;17.75;;;;;;;;;;4985756;28;20050;-67
2024/01/29 11:46:44;;;;;;;37.85;17.65;;;;;;;;;;4991026;28;20077;-67
2024/01/29 11:49:10;;;;;;;35.83;18.30;;;;;;;;;;4983913;28;20072;-67
2024/01/29 11:51:38;;;;;;;42.88;18.58;;;;;;;;;;4992530;28;20034;-66
2024/01/29 11:54:04;;;;;;;45.88;19.15;;;;;;;;;;4990701;28;20089;-67
2024/01/29 11:56:30;;;;;;;46.03;19.52;;;;;;;;;;4985196;28;20391;-67
2024/01/29 11:59:01;;;;;;;66.32;21.92;;;;;;;;;;4987753;28;20046;-67
2024/01/29 12:01:28;;;;;;;63.08;23.95;;;;;;;;;;4986011;28;20466;-67
2024/01/29 12:03:55;;;;;;;66.90;25.17;;;;;;;;;;4997981;28;20116;-66
2024/01/29 12:06:21;;;;;;;69.05;23.67;;;;;;;;;;4981239;28;20761;-67
2024/01/29 12:08:47;;;;;;;91.53;28.30;;;;;;;;;;4981469;28;20084;-67
2024/01/29 12:11:15;;;;;;;119.55;31.13;;;;;;;;;;4982041;28;20053;-67
2024/01/29 12:13:41;;;;;;;122.45;33.30;;;;;;;;;;4988430;28;20058;-67
2024/01/29 12:16:09;;;;;;;159.52;52.47;;;;;;;;;;5000999;28;20094;-66
2024/01/29 12:18:38;;;;;;;123.13;32.40;;;;;;;;;;5001194;28;20058;-67
2024/01/29 12:21:05;;;;;;;111.22;33.80;;;;;;;;;;4986003;28;20053;-66
2024/01/29 12:23:31;;;;;;;103.53;30.75;;;;;;;;;;5000128;28;20163;-66
2024/01/29 12:25:58;;;;;;;95.93;31.30;;;;;;;;;;4987926;28;20045;-66
2024/01/29 12:28:25;;;;;;;90.22;29.38;;;;;;;;;;4990124;28;20053;-66
2024/01/29 12:30:58;;;;;;;62.30;25.80;;;;;;;;;;5001572;28;20042;-67
2024/01/29 12:33:29;;;;;;;44.37;21.53;;;;;;;;;;5004444;28;20168;-66
2024/01/29 12:35:56;;;;;;;41.13;21.90;;;;;;;;;;4987663;28;20042;-66
2024/01/29 12:38:22;;;;;;;35.88;20.52;;;;;;;;;;5001214;28;20078;-66
2024/01/29 12:40:49;;;;;;;35.03;18.60;;;;;;;;;;5007050;28;20401;-66
2024/01/29 12:43:16;;;;;;;38.20;19.67;;;;;;;;;;4987420;28;20050;-67
2024/01/29 12:45:44;;;;;;;31.85;18.05;;;;;;;;;;5002587;28;20449;-66
2024/01/29 12:48:10;;;;;;;25.33;16.33;;;;;;;;;;5001510;28;20061;-66
2024/01/29 12:50:39;;;;;;;23.33;15.45;;;;;;;;;;4994778;28;20038;-66
2024/01/29 12:53:05;;;;;;;23.30;15.40;;;;;;;;;;4990979;28;20144;-66
2024/01/29 12:55:32;;;;;;;24.25;15.57;;;;;;;;;;4991040;28;20091;-66
2024/01/29 12:57:58;;;;;;;31.33;16.55;;;;;;;;;;5006745;28;20048;-66
2024/01/29 13:00:24;;;;;;;27.25;15.65;;;;;;;;;;4995761;28;20071;-66
2024/01/29 13:02:51;;;;;;;26.67;15.88;;;;;;;;;;4986542;28;20076;-66
2024/01/29 13:05:18;;;;;;;26.40;16.40;;;;;;;;;;4990989;28;20051;-66
2024/01/29 13:07:44;;;;;;;30.35;16.35;;;;;;;;;;5007668;28;20180;-66
2024/01/29 13:10:11;;;;;;;26.88;17.30;;;;;;;;;;4991928;28;20050;-66
2024/01/29 13:12:38;;;;;;;26.00;15.50;;;;;;;;;;4991432;28;20133;-66
2024/01/29 13:15:04;;;;;;;21.27;14.73;;;;;;;;;;4989566;28;20053;-66
2024/01/29 13:17:30;;;;;;;28.90;15.05;;;;;;;;;;4995400;28;20045;-67
2024/01/29 13:19:57;;;;;;;25.98;15.07;;;;;;;;;;4988186;28;20042;-66
2024/01/29 13:22:23;;;;;;;24.70;15.07;;;;;;;;;;4986987;28;20121;-67
2024/01/29 13:24:49;;;;;;;24.10;14.75;;;;;;;;;;4987976;28;20038;-66
2024/01/29 13:27:16;;;;;;;20.23;15.13;;;;;;;;;;4991305;28;20058;-66
2024/01/29 13:29:42;;;;;;;23.20;14.05;;;;;;;;;;5002886;28;20049;-66
2024/01/29 13:32:08;;;;;;;26.17;14.95;;;;;;;;;;4997398;28;20156;-66
2024/01/29 13:34:35;;;;;;;25.00;15.65;;;;;;;;;;4995206;28;20148;-66
2024/01/29 13:37:01;;;;;;;25.00;15.80;;;;;;;;;;4996258;28;20046;-67
2024/01/29 13:39:27;;;;;;;22.58;15.00;;;;;;;;;;4996096;28;20140;-66
2024/01/29 13:41:53;;;;;;;29.63;15.57;;;;;;;;;;4980553;28;20118;-66
2024/01/29 13:44:20;;;;;;;23.35;15.50;;;;;;;;;;4982542;28;20867;-68
2024/01/29 13:46:46;;;;;;;24.45;16.35;;;;;;;;;;4973595;28;20034;-66
2024/01/29 13:49:12;;;;;;;33.85;21.70;;;;;;;;;;4981539;28;20132;-66
2024/01/29 13:51:38;;;;;;;39.53;22.42;;;;;;;;;;4975101;28;20497;-67
2024/01/29 13:54:05;;;;;;;25.60;16.00;;;;;;;;;;4973691;28;20054;-66
2024/01/29 13:56:31;;;;;;;24.02;15.32;;;;;;;;;;4974480;28;20054;-66
2024/01/29 13:58:57;;;;;;;26.92;15.27;;;;;;;;;;4988212;28;20050;-66
2024/01/29 14:01:24;;;;;;;23.90;14.55;;;;;;;;;;4976666;28;20073;-67
2024/01/29 14:03:50;;;;;;;25.55;15.77;;;;;;;;;;4972783;28;20043;-66
2024/01/29 14:06:16;;;;;;;25.80;15.50;;;;;;;;;;4982864;28;20324;-66
2024/01/29 14:08:42;;;;;;;24.23;15.60;;;;;;;;;;4984702;28;20046;-66
2024/01/29 14:11:09;;;;;;;23.50;15.65;;;;;;;;;;4983051;28;20666;-66
2024/01/29 14:13:36;;;;;;;24.63;14.75;;;;;;;;;;4980353;28;20129;-66
2024/01/29 14:16:02;;;;;;;27.83;15.88;;;;;;;;;;4982782;28;20134;-68
2024/01/29 14:18:30;;;;;;;22.27;15.90;;;;;;;;;;4983088;28;20046;-66
2024/01/29 14:20:57;;;;;;;26.73;15.13;;;;;;;;;;4972035;28;20474;-66